createdAt,value
2017-12-04T00:02:26.718Z,19.15
2017-12-04T00:04:55.003Z,19.13
2017-12-04T00:07:23.388Z,19.14
2017-12-04T00:09:51.659Z,19.12
2017-12-04T00:12:19.969Z,19.13
2017-12-04T00:14:48.428Z,19.08
2017-12-04T00:17:16.733Z,19.10
2017-12-04T00:19:45.159Z,19.08
2017-12-04T00:22:13.505Z,19.07
2017-12-04T00:24:41.791Z,19.05
2017-12-04T00:27:10.221Z,19.00
2017-12-04T00:29:38.498Z,18.98
2017-12-04T00:32:06.807Z,19.00
2017-12-04T00:34:35.131Z,18.99
2017-12-04T00:37:03.463Z,18.99
2017-12-04T00:39:31.760Z,18.99
2017-12-04T00:42:00.047Z,18.96
2017-12-04T00:44:28.364Z,18.95
2017-12-04T00:46:56.663Z,18.94
2017-12-04T00:49:24.920Z,18.97
2017-12-04T00:51:53.223Z,18.94
2017-12-04T00:54:21.541Z,18.91
2017-12-04T00:56:49.939Z,18.87
2017-12-04T00:59:18.307Z,18.86
2017-12-04T01:01:46.616Z,18.85
2017-12-04T01:04:14.875Z,18.85
2017-12-04T01:06:43.191Z,18.85
2017-12-04T01:09:11.462Z,18.86
2017-12-04T01:11:40.030Z,18.84
2017-12-04T01:14:08.291Z,18.83
2017-12-04T01:16:37.206Z,18.81
2017-12-04T01:19:05.481Z,18.81
2017-12-04T01:21:33.787Z,18.80
2017-12-04T01:24:02.097Z,18.80
2017-12-04T01:26:30.475Z,18.80
2017-12-04T01:28:58.774Z,18.77
2017-12-04T01:31:27.066Z,18.74
2017-12-04T01:33:55.351Z,18.74
2017-12-04T01:36:23.655Z,18.72
2017-12-04T01:38:51.926Z,18.70
2017-12-04T01:41:20.253Z,18.69
2017-12-04T01:43:48.551Z,18.68
2017-12-04T01:46:16.850Z,18.69
2017-12-04T01:48:45.111Z,18.68
2017-12-04T01:51:13.455Z,18.70
2017-12-04T01:53:41.744Z,18.66
2017-12-04T01:56:10.100Z,18.66
2017-12-04T01:58:38.418Z,18.63
2017-12-04T02:01:06.729Z,18.64
2017-12-04T02:03:35.015Z,18.63
2017-12-04T02:06:03.351Z,18.63
2017-12-04T02:08:31.693Z,18.66
2017-12-04T02:11:00.016Z,18.63
2017-12-04T02:13:28.353Z,18.64
2017-12-04T02:15:56.831Z,18.61
2017-12-04T02:18:25.156Z,18.59
2017-12-04T02:20:53.476Z,18.57
2017-12-04T02:23:21.956Z,18.56
2017-12-04T02:25:50.252Z,18.59
2017-12-04T02:28:18.531Z,18.58
2017-12-04T02:30:46.833Z,18.55
2017-12-04T02:33:16.176Z,18.55
2017-12-04T02:35:44.490Z,18.53
2017-12-04T02:38:13.121Z,18.55
2017-12-04T02:40:41.423Z,18.53
2017-12-04T02:43:09.692Z,18.52
2017-12-04T02:45:38.003Z,18.55
2017-12-04T02:48:06.300Z,18.53
2017-12-04T02:50:34.605Z,18.54
2017-12-04T02:53:02.913Z,18.51
2017-12-04T02:55:31.400Z,18.47
2017-12-04T02:57:59.863Z,18.47
2017-12-04T03:00:28.228Z,18.46
2017-12-04T03:02:56.522Z,18.48
2017-12-04T03:05:24.830Z,18.48
2017-12-04T03:07:53.123Z,18.47
2017-12-04T03:10:21.404Z,18.44
2017-12-04T03:12:49.695Z,18.44
2017-12-04T03:15:17.987Z,18.37
2017-12-04T03:17:46.695Z,18.29
2017-12-04T03:20:15.029Z,18.33
2017-12-04T03:22:43.375Z,18.37
2017-12-04T03:25:11.799Z,18.40
2017-12-04T03:27:40.182Z,18.41
2017-12-04T03:30:08.525Z,18.41
2017-12-04T03:32:36.804Z,18.43
2017-12-04T03:35:05.156Z,18.42
2017-12-04T03:37:33.468Z,18.39
2017-12-04T03:40:01.717Z,18.37
2017-12-04T03:42:30.099Z,18.42
2017-12-04T03:44:58.340Z,18.41
2017-12-04T03:47:26.836Z,18.42
2017-12-04T03:49:55.119Z,18.39
2017-12-04T03:52:23.499Z,18.37
2017-12-04T03:54:51.803Z,18.34
2017-12-04T03:57:20.249Z,18.35
2017-12-04T03:59:48.507Z,18.35
2017-12-04T04:02:17.027Z,18.40
2017-12-04T04:04:45.294Z,18.38
2017-12-04T04:07:13.664Z,18.36
2017-12-04T04:09:41.969Z,18.36
2017-12-04T04:12:10.295Z,18.34
2017-12-04T04:14:38.568Z,18.36
2017-12-04T04:17:06.963Z,18.38
2017-12-04T04:19:35.260Z,18.36
2017-12-04T04:22:03.622Z,18.37
2017-12-04T04:24:31.914Z,18.28
2017-12-04T04:27:00.283Z,18.25
2017-12-04T04:29:28.715Z,18.27
2017-12-04T04:31:57.024Z,18.32
2017-12-04T04:34:25.356Z,18.32
2017-12-04T04:36:53.783Z,18.35
2017-12-04T04:39:22.042Z,18.35
2017-12-04T04:41:50.342Z,18.38
2017-12-04T04:44:18.618Z,18.38
2017-12-04T04:46:46.932Z,18.40
2017-12-04T04:49:15.322Z,18.36
2017-12-04T04:51:43.623Z,18.38
2017-12-04T04:54:11.934Z,18.36
2017-12-04T04:56:40.232Z,18.35
2017-12-04T04:59:08.545Z,18.36
2017-12-04T05:01:36.839Z,18.35
2017-12-04T05:04:05.215Z,18.34
2017-12-04T05:06:33.475Z,18.32
2017-12-04T05:09:01.778Z,18.31
2017-12-04T05:11:30.072Z,18.30
2017-12-04T05:13:58.356Z,18.35
2017-12-04T05:16:26.819Z,18.33
2017-12-04T05:18:55.106Z,18.28
2017-12-04T05:21:23.412Z,18.31
2017-12-04T05:23:51.725Z,18.30
2017-12-04T05:26:20.084Z,18.19
2017-12-04T05:28:48.370Z,18.20
2017-12-04T05:31:16.708Z,18.22
2017-12-04T05:33:45.137Z,18.24
2017-12-04T05:36:13.438Z,18.24
2017-12-04T05:38:41.723Z,18.22
2017-12-04T05:41:10.032Z,18.24
2017-12-04T05:43:38.297Z,18.26
2017-12-04T05:46:06.633Z,18.28
2017-12-04T05:48:34.899Z,18.29
2017-12-04T05:51:03.279Z,18.30
2017-12-04T05:53:31.574Z,18.28
2017-12-04T05:55:59.885Z,18.28
2017-12-04T05:58:28.308Z,18.30
2017-12-04T06:00:56.595Z,18.31
2017-12-04T06:03:25.895Z,18.33
2017-12-04T06:05:54.231Z,18.34
2017-12-04T06:08:22.544Z,18.33
2017-12-04T06:10:50.959Z,18.36
2017-12-04T06:13:19.652Z,18.40
2017-12-04T06:15:47.964Z,18.42
2017-12-04T06:18:16.248Z,18.49
2017-12-04T06:20:44.578Z,18.53
2017-12-04T06:23:12.946Z,18.52
2017-12-04T06:25:41.235Z,18.52
2017-12-04T06:28:09.496Z,18.53
2017-12-04T06:30:37.775Z,18.55
2017-12-04T06:33:06.211Z,18.55
2017-12-04T06:35:34.540Z,18.56
2017-12-04T06:38:02.815Z,18.59
2017-12-04T06:40:31.106Z,18.60
2017-12-04T06:42:59.391Z,18.60
2017-12-04T06:45:27.682Z,18.63
2017-12-04T06:47:56.133Z,18.63
2017-12-04T06:50:24.443Z,18.63
2017-12-04T06:52:52.772Z,18.65
2017-12-04T06:55:21.089Z,18.69
2017-12-04T06:57:49.392Z,18.71
2017-12-04T07:00:17.691Z,18.75
2017-12-04T07:02:45.979Z,18.75
2017-12-04T07:05:14.303Z,18.77
2017-12-04T07:07:42.611Z,18.77
2017-12-04T07:10:10.919Z,18.79
2017-12-04T07:12:39.215Z,18.80
2017-12-04T07:15:07.563Z,18.78
2017-12-04T07:17:35.923Z,18.79
2017-12-04T07:20:04.264Z,18.79
2017-12-04T07:22:32.607Z,18.81
2017-12-04T07:25:00.985Z,18.81
2017-12-04T07:27:29.332Z,18.81
2017-12-04T07:29:57.620Z,18.81
2017-12-04T07:32:26.099Z,18.83
2017-12-04T07:34:54.666Z,18.85
2017-12-04T07:37:23.471Z,18.87
2017-12-04T07:39:52.399Z,18.90
2017-12-04T07:42:21.256Z,18.93
2017-12-04T07:44:50.800Z,18.92
2017-12-04T07:47:19.391Z,18.91
2017-12-04T07:49:48.124Z,18.93
2017-12-04T07:52:16.488Z,18.94
2017-12-04T07:54:45.105Z,18.94
2017-12-04T07:57:14.123Z,18.96
2017-12-04T07:59:42.438Z,18.96
2017-12-04T08:02:10.856Z,18.96
2017-12-04T08:04:39.414Z,18.96
2017-12-04T08:07:07.919Z,18.97
2017-12-04T08:09:36.375Z,18.98
2017-12-04T08:12:04.731Z,18.97
2017-12-04T08:14:33.119Z,18.97
2017-12-04T08:17:01.723Z,18.96
2017-12-04T08:19:30.015Z,18.97
2017-12-04T08:21:58.370Z,18.98
2017-12-04T08:24:26.811Z,18.98
2017-12-04T08:26:55.105Z,18.99
2017-12-04T08:29:23.623Z,18.99
2017-12-04T08:31:52.096Z,19.00
2017-12-04T08:34:20.387Z,19.02
2017-12-04T08:36:48.843Z,19.01
2017-12-04T08:39:17.090Z,19.00
2017-12-04T08:41:45.404Z,19.02
2017-12-04T08:44:13.684Z,19.04
2017-12-04T08:46:42.007Z,19.04
2017-12-04T08:49:10.395Z,19.05
2017-12-04T08:51:38.682Z,19.06
2017-12-04T08:54:07.020Z,19.08
2017-12-04T08:56:35.471Z,19.08
2017-12-04T08:59:03.835Z,19.10
2017-12-04T09:01:32.143Z,19.12
2017-12-04T09:04:00.406Z,19.12
2017-12-04T09:06:28.712Z,19.12
2017-12-04T09:08:56.999Z,19.12
2017-12-04T09:11:25.299Z,19.13
2017-12-04T09:13:53.611Z,19.13
2017-12-04T09:16:22.090Z,19.13
2017-12-04T09:18:50.470Z,19.13
2017-12-04T09:21:18.772Z,19.13
2017-12-04T09:23:47.076Z,19.14
2017-12-04T09:26:15.419Z,19.13
2017-12-04T09:28:43.710Z,19.14
2017-12-04T09:31:12.007Z,19.15
2017-12-04T09:33:40.286Z,19.25
2017-12-04T09:36:08.607Z,19.37
2017-12-04T09:38:36.904Z,19.50
2017-12-04T09:41:05.288Z,19.49
2017-12-04T09:43:33.575Z,19.47
2017-12-04T09:46:01.867Z,19.45
2017-12-04T09:48:30.131Z,19.45
2017-12-04T09:50:58.426Z,19.47
2017-12-04T09:53:26.820Z,19.49
2017-12-04T09:55:55.147Z,19.48
2017-12-04T09:58:23.424Z,19.50
2017-12-04T10:00:51.727Z,19.51
2017-12-04T10:03:20.044Z,19.50
2017-12-04T10:05:48.495Z,19.52
2017-12-04T10:08:16.767Z,19.56
2017-12-04T10:10:45.088Z,19.61
2017-12-04T10:13:13.354Z,19.56
2017-12-04T10:15:41.744Z,19.56
2017-12-04T10:18:10.084Z,19.57
2017-12-04T10:20:38.387Z,19.59
2017-12-04T10:23:06.696Z,19.63
2017-12-04T10:25:35.011Z,19.59
2017-12-04T10:28:03.527Z,19.59
2017-12-04T10:30:32.019Z,19.60
2017-12-04T10:33:00.387Z,19.59
2017-12-04T10:35:28.767Z,19.56
2017-12-04T10:37:57.056Z,19.56
2017-12-04T10:40:25.396Z,19.54
2017-12-04T10:42:53.768Z,19.54
2017-12-04T10:45:22.083Z,19.53
2017-12-04T10:47:50.463Z,19.55
2017-12-04T10:50:18.966Z,19.53
2017-12-04T10:52:47.287Z,19.52
2017-12-04T10:55:15.628Z,19.54
2017-12-04T10:57:43.946Z,19.60
2017-12-04T11:00:12.291Z,19.53
2017-12-04T11:02:40.586Z,19.57
2017-12-04T11:05:09.003Z,19.54
2017-12-04T11:07:37.311Z,19.54
2017-12-04T11:10:05.623Z,19.52
2017-12-04T11:12:33.978Z,19.55
2017-12-04T11:15:02.275Z,19.57
2017-12-04T11:17:30.793Z,19.57
2017-12-04T11:19:59.115Z,19.55
2017-12-04T11:22:27.542Z,19.53
2017-12-04T11:24:55.807Z,19.57
2017-12-04T11:27:24.135Z,19.56
2017-12-04T11:29:52.548Z,19.55
2017-12-04T11:32:20.961Z,19.56
2017-12-04T11:34:49.303Z,19.53
2017-12-04T11:37:17.653Z,19.53
2017-12-04T11:39:46.083Z,19.54
2017-12-04T11:42:14.442Z,19.52
2017-12-04T11:44:42.742Z,19.51
2017-12-04T11:47:11.116Z,19.49
2017-12-04T11:49:39.591Z,19.51
2017-12-04T11:52:08.096Z,19.54
2017-12-04T11:54:36.388Z,19.52
2017-12-04T11:57:04.712Z,19.54
2017-12-04T11:59:33.035Z,19.52
2017-12-04T12:02:01.563Z,19.54
2017-12-04T12:04:29.843Z,19.51
2017-12-04T12:06:58.196Z,19.48
2017-12-04T12:09:26.465Z,19.48
2017-12-04T12:11:54.911Z,19.54
2017-12-04T12:14:23.355Z,19.55
2017-12-04T12:16:51.699Z,19.54
2017-12-04T12:19:20.018Z,19.56
2017-12-04T12:21:48.427Z,19.56
2017-12-04T12:24:16.715Z,19.61
2017-12-04T12:26:45.035Z,19.61
2017-12-04T12:29:13.313Z,19.64
2017-12-04T12:31:41.745Z,19.67
2017-12-04T12:34:10.176Z,19.70
2017-12-04T12:36:38.467Z,19.68
2017-12-04T12:39:06.947Z,19.66
2017-12-04T12:41:35.299Z,19.69
2017-12-04T12:44:03.590Z,19.69
2017-12-04T12:46:31.887Z,19.74
2017-12-04T12:49:00.191Z,19.78
2017-12-04T12:51:28.554Z,19.83
2017-12-04T12:53:56.870Z,19.85
2017-12-04T12:56:25.212Z,19.82
2017-12-04T12:58:53.531Z,19.80
2017-12-04T13:01:21.831Z,19.83
2017-12-04T13:03:50.140Z,19.81
2017-12-04T13:06:18.423Z,19.83
2017-12-04T13:08:46.705Z,19.77
2017-12-04T13:11:15.013Z,19.74
2017-12-04T13:13:43.336Z,19.73
2017-12-04T13:16:11.722Z,19.70
2017-12-04T13:18:40.160Z,19.65
2017-12-04T13:21:08.474Z,19.63
2017-12-04T13:23:36.923Z,19.63
2017-12-04T13:26:05.245Z,19.62
2017-12-04T13:28:33.683Z,19.55
2017-12-04T13:31:02.036Z,19.59
2017-12-04T13:35:41.571Z,19.63
2017-12-04T13:38:10.011Z,20.32
2017-12-04T13:40:38.311Z,19.79
2017-12-04T13:43:06.634Z,19.63
2017-12-04T13:45:34.967Z,19.55
2017-12-04T13:48:03.315Z,19.52
2017-12-04T13:50:31.839Z,19.47
2017-12-04T13:53:00.368Z,19.49
2017-12-04T13:55:28.647Z,19.51
2017-12-04T13:57:57.051Z,19.53
2017-12-04T14:00:25.534Z,19.54
2017-12-04T14:02:53.859Z,19.56
2017-12-04T14:05:29.060Z,19.59
2017-12-04T14:07:57.366Z,19.56
2017-12-04T14:10:25.813Z,19.54
2017-12-04T14:12:54.251Z,19.55
2017-12-04T14:15:22.556Z,19.51
2017-12-04T14:17:50.856Z,19.48
2017-12-04T14:20:20.125Z,19.47
2017-12-04T14:22:48.406Z,19.41
2017-12-04T14:25:16.696Z,19.38
2017-12-04T14:27:45.060Z,19.35
2017-12-04T14:30:13.352Z,19.33
2017-12-04T14:32:41.654Z,19.33
2017-12-04T14:35:10.009Z,19.34
2017-12-04T14:37:38.307Z,19.56
2017-12-04T14:40:06.661Z,19.77
2017-12-04T14:42:34.987Z,19.84
2017-12-04T14:45:03.423Z,19.95
2017-12-04T14:47:31.755Z,19.99
2017-12-04T14:50:00.006Z,20.13
2017-12-04T14:52:28.351Z,20.21
2017-12-04T14:54:56.690Z,20.25
2017-12-04T14:57:25.011Z,20.29
2017-12-04T14:59:53.316Z,20.36
2017-12-04T15:02:21.656Z,20.44
2017-12-04T15:04:49.930Z,20.48
2017-12-04T15:07:18.311Z,20.50
2017-12-04T15:09:46.658Z,20.53
2017-12-04T15:12:14.991Z,20.58
2017-12-04T15:14:43.268Z,20.54
2017-12-04T15:17:11.611Z,20.49
2017-12-04T15:19:39.975Z,20.46
2017-12-04T15:22:08.312Z,20.44
2017-12-04T15:24:36.711Z,20.39
2017-12-04T15:27:05.031Z,20.39
2017-12-04T15:29:33.309Z,20.37
2017-12-04T15:32:01.613Z,20.34
2017-12-04T15:34:29.903Z,20.32
2017-12-04T15:36:58.235Z,20.30
2017-12-04T15:39:26.516Z,20.27
2017-12-04T15:41:54.806Z,20.26
2017-12-04T15:44:23.080Z,20.27
2017-12-04T15:46:51.379Z,20.22
2017-12-04T15:49:19.716Z,20.17
2017-12-04T15:51:48.784Z,20.19
2017-12-04T15:54:17.374Z,20.19
2017-12-04T15:56:45.658Z,20.18
2017-12-04T15:59:13.935Z,20.21
2017-12-04T16:01:42.218Z,20.18
2017-12-04T16:04:10.511Z,20.23
2017-12-04T16:06:38.835Z,20.27
2017-12-04T16:09:07.160Z,20.16
2017-12-04T16:11:35.671Z,20.20
2017-12-04T16:14:04.031Z,20.22
2017-12-04T16:16:32.387Z,20.24
2017-12-04T16:19:00.663Z,20.20
2017-12-04T16:21:28.980Z,20.13
2017-12-04T16:23:57.269Z,20.08
2017-12-04T16:26:25.720Z,20.08
2017-12-04T16:28:54.011Z,20.09
2017-12-04T16:31:22.304Z,20.04
2017-12-04T16:33:50.579Z,20.02
2017-12-04T16:36:18.884Z,19.99
2017-12-04T16:38:47.172Z,20.03
2017-12-04T16:41:15.464Z,20.02
2017-12-04T16:43:43.747Z,20.05
2017-12-04T16:46:12.084Z,20.08
2017-12-04T16:48:40.375Z,20.02
2017-12-04T16:51:08.687Z,20.19
2017-12-04T16:53:36.979Z,20.34
2017-12-04T16:56:05.419Z,20.44
2017-12-04T16:58:33.884Z,20.46
2017-12-04T17:01:02.187Z,20.45
2017-12-04T17:03:30.467Z,20.52
2017-12-04T17:05:58.783Z,20.56
2017-12-04T17:08:27.143Z,20.60
2017-12-04T17:10:55.488Z,20.48
2017-12-04T17:13:23.779Z,20.45
2017-12-04T17:15:52.246Z,20.41
2017-12-04T17:18:20.760Z,20.39
2017-12-04T17:20:49.219Z,20.38
2017-12-04T17:23:17.530Z,20.36
2017-12-04T17:25:45.832Z,20.35
2017-12-04T17:28:14.123Z,20.34
2017-12-04T17:30:42.519Z,20.31
2017-12-04T17:33:10.936Z,20.29
2017-12-04T17:35:39.319Z,20.28
2017-12-04T17:38:07.731Z,20.28
2017-12-04T17:40:36.048Z,20.42
2017-12-04T17:43:04.483Z,20.32
2017-12-04T17:45:32.779Z,20.29
2017-12-04T17:48:01.224Z,20.29
2017-12-04T17:50:29.515Z,20.46
2017-12-04T17:52:57.795Z,20.48
2017-12-04T17:55:26.240Z,20.50
2017-12-04T17:57:54.525Z,20.55
2017-12-04T18:00:24.768Z,20.62
2017-12-04T18:02:53.168Z,20.70
2017-12-04T18:05:21.459Z,20.72
2017-12-04T18:07:49.764Z,20.79
2017-12-04T18:10:18.087Z,20.82
2017-12-04T18:12:46.387Z,20.85
2017-12-04T18:15:14.771Z,20.88
2017-12-04T18:17:43.065Z,20.92
2017-12-04T18:20:11.523Z,20.93
2017-12-04T18:22:39.884Z,20.90
2017-12-04T18:25:08.171Z,20.82
2017-12-04T18:27:36.487Z,20.79
2017-12-04T18:30:04.886Z,20.81
2017-12-04T18:32:33.295Z,20.76
2017-12-04T18:35:01.608Z,20.79
2017-12-04T18:37:30.048Z,20.81
2017-12-04T18:39:58.324Z,20.63
2017-12-04T18:42:26.792Z,20.55
2017-12-04T18:44:55.095Z,20.57
2017-12-04T18:47:23.495Z,20.50
2017-12-04T18:49:51.795Z,20.42
2017-12-04T18:52:20.136Z,20.44
2017-12-04T18:54:48.399Z,20.45
2017-12-04T18:57:16.813Z,20.46
2017-12-04T18:59:45.249Z,20.44
2017-12-04T19:02:13.580Z,20.44
2017-12-04T19:04:42.020Z,20.40
2017-12-04T19:07:10.518Z,20.44
2017-12-04T19:09:38.844Z,20.48
2017-12-04T19:12:07.202Z,20.47
2017-12-04T19:14:35.519Z,20.42
2017-12-04T19:17:03.847Z,20.42
2017-12-04T19:19:32.104Z,20.39
2017-12-04T19:22:00.574Z,20.42
2017-12-04T19:24:28.880Z,20.36
2017-12-04T19:26:57.163Z,20.32
2017-12-04T19:29:25.455Z,20.31
2017-12-04T19:31:53.751Z,20.30
2017-12-04T19:34:22.021Z,20.27
2017-12-04T19:36:50.324Z,20.31
2017-12-04T19:39:18.803Z,20.26
2017-12-04T19:41:47.276Z,20.26
2017-12-04T19:44:19.835Z,20.26
2017-12-04T19:46:48.477Z,20.26
2017-12-04T19:49:16.738Z,20.21
2017-12-04T19:51:45.047Z,20.19
2017-12-04T19:54:13.467Z,20.14
2017-12-04T19:56:41.783Z,20.14
2017-12-04T19:59:13.111Z,20.16
2017-12-04T20:01:42.499Z,20.13
2017-12-04T20:04:10.824Z,20.10
2017-12-04T20:06:39.164Z,20.09
2017-12-04T20:09:07.543Z,20.08
2017-12-04T20:11:36.013Z,20.10
2017-12-04T20:14:04.330Z,20.07
2017-12-04T20:16:32.772Z,20.06
2017-12-04T20:19:01.254Z,20.08
2017-12-04T20:21:29.905Z,20.05
2017-12-04T20:23:58.176Z,20.04
2017-12-04T20:26:26.599Z,20.04
2017-12-04T20:28:55.439Z,20.02
2017-12-04T20:31:28.552Z,20.01
2017-12-04T20:33:57.364Z,20.00
2017-12-04T20:36:27.677Z,19.99
2017-12-04T20:38:55.947Z,19.99
2017-12-04T20:41:24.269Z,20.00
2017-12-04T20:43:52.828Z,19.95
2017-12-04T20:46:21.323Z,19.96
2017-12-04T20:48:50.419Z,19.93
2017-12-04T20:51:18.827Z,19.93
2017-12-04T20:53:47.141Z,19.93
2017-12-04T20:56:15.448Z,19.89
2017-12-04T20:58:43.735Z,19.90
2017-12-04T21:01:13.107Z,19.89
2017-12-04T21:03:41.511Z,19.89
2017-12-04T21:06:09.903Z,19.89
2017-12-04T21:08:48.182Z,19.86
2017-12-04T21:12:19.740Z,19.89
2017-12-04T21:15:59.526Z,19.85
2017-12-04T21:18:27.843Z,19.83
2017-12-04T21:20:56.200Z,19.85
2017-12-04T21:23:24.479Z,19.83
2017-12-04T21:25:52.806Z,19.84
2017-12-04T21:28:21.128Z,19.84
2017-12-04T21:30:49.567Z,19.85
2017-12-04T21:33:17.828Z,19.83
2017-12-04T21:35:46.203Z,19.77
2017-12-04T21:38:14.459Z,19.78
2017-12-04T21:40:42.763Z,19.78
2017-12-04T21:43:11.076Z,19.75
2017-12-04T21:45:39.535Z,19.73
2017-12-04T21:48:07.823Z,19.71
2017-12-04T21:50:36.195Z,19.72
2017-12-04T21:53:04.498Z,19.65
2017-12-04T21:55:32.952Z,19.60
2017-12-04T21:58:01.242Z,19.56
2017-12-04T22:00:29.551Z,19.56
2017-12-04T22:02:57.859Z,19.52
2017-12-04T22:05:26.160Z,19.44
2017-12-04T22:07:54.451Z,19.45
2017-12-04T22:10:22.739Z,19.49
2017-12-04T22:12:51.019Z,19.45
2017-12-04T22:15:19.340Z,19.47
2017-12-04T22:17:47.642Z,19.44
2017-12-04T22:20:16.098Z,19.45
2017-12-04T22:22:44.563Z,19.37
2017-12-04T22:25:12.839Z,19.32
2017-12-04T22:27:41.148Z,19.36
2017-12-04T22:30:09.471Z,19.33
2017-12-04T22:32:37.745Z,19.25
2017-12-04T22:35:06.050Z,19.31
2017-12-04T22:37:34.971Z,19.29
2017-12-04T22:40:03.407Z,19.21
2017-12-04T22:42:31.695Z,19.19
2017-12-04T22:45:00.075Z,19.19
2017-12-04T22:47:28.567Z,19.17
2017-12-04T22:49:56.853Z,19.15
2017-12-04T22:52:25.330Z,19.15
2017-12-04T22:54:53.828Z,19.12
2017-12-04T22:57:22.152Z,19.12
2017-12-04T22:59:50.438Z,19.11
2017-12-04T23:02:18.747Z,19.07
2017-12-04T23:04:47.015Z,19.05
2017-12-04T23:07:15.367Z,19.04
2017-12-04T23:09:43.630Z,19.02
2017-12-04T23:12:11.967Z,19.02
2017-12-04T23:14:40.397Z,19.03
2017-12-04T23:17:08.943Z,19.00
2017-12-04T23:19:37.355Z,18.99
2017-12-04T23:22:05.664Z,18.95
2017-12-04T23:24:33.995Z,18.93
2017-12-04T23:27:02.334Z,18.90
2017-12-04T23:29:30.602Z,18.92
2017-12-04T23:31:58.987Z,18.92
2017-12-04T23:34:27.243Z,18.83
2017-12-04T23:36:55.731Z,18.87
2017-12-04T23:39:23.987Z,18.84
2017-12-04T23:41:52.507Z,18.88
2017-12-04T23:44:20.936Z,18.88
2017-12-04T23:46:49.262Z,18.91
2017-12-04T23:49:17.544Z,18.91
2017-12-04T23:51:45.919Z,18.94
2017-12-04T23:54:21.192Z,18.94
2017-12-04T23:56:49.529Z,18.92
2017-12-04T23:59:17.825Z,18.91
